createdAt,value
2022-08-30T00:01:26.681Z,67.30
2022-08-30T00:03:56.107Z,67.86
2022-08-30T00:06:29.152Z,67.97
2022-08-30T00:09:00.999Z,67.62
2022-08-30T00:11:30.295Z,67.68
2022-08-30T00:13:59.954Z,67.27
2022-08-30T00:16:28.249Z,67.29
2022-08-30T00:18:56.391Z,67.75
2022-08-30T00:21:24.431Z,67.76
2022-08-30T00:23:52.700Z,67.63
2022-08-30T00:26:22.150Z,67.74
2022-08-30T00:28:50.017Z,68.04
2022-08-30T00:31:18.416Z,67.74
2022-08-30T00:33:46.494Z,67.50
2022-08-30T00:36:14.421Z,67.94
2022-08-30T00:38:42.714Z,68.27
2022-08-30T00:41:11.808Z,68.16
2022-08-30T00:43:43.499Z,67.88
2022-08-30T00:46:13.184Z,68.43
2022-08-30T00:48:46.308Z,68.04
2022-08-30T00:51:16.463Z,68.20
2022-08-30T00:53:49.524Z,68.24
2022-08-30T00:56:19.191Z,68.19
2022-08-30T00:58:53.302Z,68.49
2022-08-30T01:01:21.918Z,68.51
2022-08-30T01:03:50.336Z,68.45
2022-08-30T01:06:19.048Z,68.88
2022-08-30T01:08:48.086Z,68.47
2022-08-30T01:11:19.923Z,68.58
2022-08-30T01:13:51.079Z,68.48
2022-08-30T01:16:19.578Z,68.94
2022-08-30T01:18:52.762Z,68.89
2022-08-30T01:21:28.661Z,68.79
2022-08-30T01:24:03.033Z,68.38
2022-08-30T01:26:32.663Z,69.22
2022-08-30T01:29:05.332Z,68.93
2022-08-30T01:31:37.093Z,68.84
2022-08-30T01:34:07.764Z,69.40
2022-08-30T01:36:36.961Z,69.53
2022-08-30T01:39:06.766Z,69.48
2022-08-30T01:41:36.470Z,69.56
2022-08-30T01:44:07.593Z,69.23
2022-08-30T01:46:38.602Z,69.01
2022-08-30T01:49:09.076Z,69.58
2022-08-30T01:51:37.624Z,69.35
2022-08-30T01:54:07.664Z,69.01
2022-08-30T01:56:36.217Z,69.33
2022-08-30T01:59:04.564Z,69.45
2022-08-30T02:01:35.725Z,69.80
2022-08-30T02:04:05.557Z,69.54
2022-08-30T02:06:33.977Z,69.66
2022-08-30T02:09:02.680Z,70.04
2022-08-30T02:11:32.150Z,69.88
2022-08-30T02:14:00.197Z,70.25
2022-08-30T02:16:30.735Z,69.75
2022-08-30T02:18:58.828Z,70.11
2022-08-30T02:21:27.737Z,70.18
2022-08-30T02:23:56.088Z,69.90
2022-08-30T02:26:24.608Z,70.17
2022-08-30T02:28:56.439Z,70.37
2022-08-30T02:31:27.449Z,70.14
2022-08-30T02:33:55.640Z,70.53
2022-08-30T02:36:25.919Z,70.36
2022-08-30T02:38:54.736Z,70.39
2022-08-30T02:41:24.255Z,70.59
2022-08-30T02:43:58.471Z,70.51
2022-08-30T02:46:27.085Z,70.56
2022-08-30T02:49:05.636Z,70.00
2022-08-30T02:51:43.777Z,70.41
2022-08-30T02:54:15.716Z,71.08
2022-08-30T02:56:43.732Z,70.78
2022-08-30T02:59:13.142Z,71.03
2022-08-30T03:01:41.056Z,70.97
2022-08-30T03:04:09.933Z,70.83
2022-08-30T03:06:38.951Z,71.51
2022-08-30T03:09:07.033Z,70.99
2022-08-30T03:11:35.158Z,71.67
2022-08-30T03:14:03.195Z,71.72
2022-08-30T03:16:33.754Z,71.05
2022-08-30T03:19:01.708Z,71.17
2022-08-30T03:21:29.704Z,71.38
2022-08-30T03:23:57.578Z,71.20
2022-08-30T03:26:25.540Z,71.54
2022-08-30T03:28:53.598Z,71.48
2022-08-30T03:31:21.988Z,71.38
2022-08-30T03:33:52.000Z,71.65
2022-08-30T03:36:20.152Z,72.09
2022-08-30T03:38:48.587Z,71.10
2022-08-30T03:41:17.245Z,71.34
2022-08-30T03:43:46.814Z,72.00
2022-08-30T03:46:15.961Z,72.31
2022-08-30T03:48:47.071Z,71.91
2022-08-30T03:51:18.105Z,71.77
2022-08-30T03:53:46.183Z,72.26
2022-08-30T03:56:17.425Z,71.83
2022-08-30T03:58:45.857Z,72.02
2022-08-30T04:01:13.910Z,71.57
2022-08-30T04:03:41.798Z,72.32
2022-08-30T04:06:09.731Z,71.96
2022-08-30T04:08:40.557Z,72.10
2022-08-30T04:11:08.685Z,72.59
2022-08-30T04:13:36.680Z,72.51
2022-08-30T04:16:05.163Z,72.11
2022-08-30T04:18:33.098Z,72.04
2022-08-30T04:21:01.134Z,72.41
2022-08-30T04:23:29.128Z,72.44
2022-08-30T04:25:59.493Z,72.67
2022-08-30T04:28:27.571Z,72.67
2022-08-30T04:30:55.678Z,72.52
2022-08-30T04:33:23.659Z,72.74
2022-08-30T04:35:54.738Z,72.76
2022-08-30T04:38:25.555Z,73.01
2022-08-30T04:40:58.099Z,72.68
2022-08-30T04:43:26.771Z,72.17
2022-08-30T04:45:55.511Z,72.63
2022-08-30T04:48:23.967Z,73.19
2022-08-30T04:50:52.390Z,72.72
2022-08-30T04:53:20.418Z,73.02
2022-08-30T04:55:48.708Z,73.00
2022-08-30T04:58:19.524Z,73.63
2022-08-30T05:00:50.953Z,73.20
2022-08-30T05:03:19.164Z,73.05
2022-08-30T05:05:49.159Z,73.10
2022-08-30T05:08:24.617Z,73.35
2022-08-30T05:10:53.762Z,73.82
2022-08-30T05:13:35.029Z,73.49
2022-08-30T05:16:05.514Z,73.91
2022-08-30T05:18:33.965Z,73.67
2022-08-30T05:21:07.603Z,73.46
2022-08-30T05:23:37.187Z,73.59
2022-08-30T05:26:07.654Z,73.74
2022-08-30T05:28:37.494Z,73.81
2022-08-30T05:31:14.746Z,74.07
2022-08-30T05:33:43.073Z,73.79
2022-08-30T05:36:13.253Z,74.11
2022-08-30T05:38:42.792Z,74.08
2022-08-30T05:41:12.757Z,74.21
2022-08-30T05:43:42.509Z,74.15
2022-08-30T05:46:14.799Z,74.60
2022-08-30T05:48:42.888Z,74.48
2022-08-30T05:51:13.170Z,74.27
2022-08-30T05:53:42.186Z,74.83
2022-08-30T05:56:12.257Z,74.61
2022-08-30T05:58:41.952Z,74.65
2022-08-30T06:01:23.750Z,74.87
2022-08-30T06:03:52.463Z,74.69
2022-08-30T06:06:20.472Z,74.95
2022-08-30T06:08:49.183Z,75.14
2022-08-30T06:11:20.311Z,75.11
2022-08-30T06:13:50.670Z,75.07
2022-08-30T06:16:20.798Z,75.21
2022-08-30T06:18:49.848Z,74.94
2022-08-30T06:21:18.934Z,75.13
2022-08-30T06:23:47.086Z,75.10
2022-08-30T06:26:17.145Z,75.21
2022-08-30T06:28:45.524Z,75.17
2022-08-30T06:31:16.346Z,74.93
2022-08-30T06:33:45.264Z,75.12
2022-08-30T06:36:16.827Z,75.01
2022-08-30T06:38:45.312Z,75.10
2022-08-30T06:41:15.402Z,75.15
2022-08-30T06:43:48.650Z,75.08
2022-08-30T06:46:21.675Z,75.20
2022-08-30T06:48:49.876Z,75.07
2022-08-30T06:51:21.878Z,74.99
2022-08-30T06:53:50.794Z,75.19
2022-08-30T06:56:20.254Z,75.10
2022-08-30T06:58:49.726Z,75.01
2022-08-30T07:01:22.081Z,75.17
2022-08-30T07:03:50.305Z,75.02
2022-08-30T07:06:19.088Z,75.03
2022-08-30T07:08:48.096Z,75.10
2022-08-30T07:11:16.543Z,74.80
2022-08-30T07:13:45.963Z,74.91
2022-08-30T07:16:15.195Z,75.02
2022-08-30T07:18:54.974Z,75.04
2022-08-30T07:21:26.663Z,75.03
2022-08-30T07:23:56.117Z,74.94
2022-08-30T07:26:26.687Z,74.76
2022-08-30T07:28:56.233Z,74.81
2022-08-30T07:31:25.518Z,74.88
2022-08-30T07:33:55.739Z,74.88
2022-08-30T07:36:24.517Z,74.85
2022-08-30T07:38:54.551Z,74.92
2022-08-30T07:41:25.570Z,74.72
2022-08-30T07:43:53.799Z,74.66
2022-08-30T07:46:23.217Z,74.51
2022-08-30T07:48:51.715Z,74.62
2022-08-30T07:51:23.873Z,74.57
2022-08-30T07:53:52.588Z,74.55
2022-08-30T07:56:20.896Z,74.72
2022-08-30T07:58:48.935Z,74.52
2022-08-30T08:01:18.805Z,74.39
2022-08-30T08:03:48.012Z,74.51
2022-08-30T08:06:18.292Z,74.28
2022-08-30T08:08:47.846Z,74.33
2022-08-30T08:11:19.390Z,74.18
2022-08-30T08:13:54.129Z,74.30
2022-08-30T08:16:24.248Z,74.24
2022-08-30T08:18:53.086Z,74.20
2022-08-30T08:21:23.399Z,74.06
2022-08-30T08:23:53.053Z,73.75
2022-08-30T08:26:21.733Z,74.11
2022-08-30T08:28:50.179Z,73.87
2022-08-30T08:31:19.872Z,73.61
2022-08-30T08:33:49.582Z,74.21
2022-08-30T08:36:18.592Z,73.62
2022-08-30T08:38:46.677Z,73.87
2022-08-30T08:41:29.462Z,73.78
2022-08-30T08:43:57.464Z,73.63
2022-08-30T08:46:29.605Z,73.48
2022-08-30T08:49:02.821Z,73.19
2022-08-30T08:52:01.021Z,73.35
2022-08-30T08:54:37.570Z,73.16
2022-08-30T08:57:07.220Z,73.02
2022-08-30T08:59:35.276Z,72.94
2022-08-30T09:02:24.101Z,72.91
2022-08-30T09:04:55.509Z,72.75
2022-08-30T09:07:29.742Z,72.67
2022-08-30T09:10:00.617Z,72.71
2022-08-30T09:12:30.190Z,72.70
2022-08-30T09:15:03.818Z,72.34
2022-08-30T09:17:50.959Z,72.59
2022-08-30T09:20:28.445Z,72.27
2022-08-30T09:22:57.025Z,72.16
2022-08-30T09:25:29.954Z,72.29
2022-08-30T09:28:12.541Z,72.23
2022-08-30T09:30:41.185Z,72.02
2022-08-30T09:33:20.548Z,71.76
2022-08-30T09:35:52.080Z,71.75
2022-08-30T09:38:24.674Z,71.43
2022-08-30T09:40:54.856Z,71.42
2022-08-30T09:43:28.423Z,71.27
2022-08-30T09:46:11.296Z,71.20
2022-08-30T09:48:47.693Z,71.21
2022-08-30T09:51:38.616Z,71.17
2022-08-30T09:54:18.383Z,70.72
2022-08-30T09:56:57.989Z,70.84
2022-08-30T09:59:42.461Z,70.99
2022-08-30T10:02:29.228Z,70.60
2022-08-30T10:05:07.119Z,70.67
2022-08-30T10:07:43.871Z,70.64
2022-08-30T10:10:18.966Z,70.27
2022-08-30T10:13:02.678Z,70.18
2022-08-30T10:15:36.532Z,69.77
2022-08-30T10:18:18.303Z,69.52
2022-08-30T10:20:54.835Z,69.48
2022-08-30T10:23:28.226Z,69.45
2022-08-30T10:26:01.318Z,69.27
2022-08-30T10:28:35.922Z,69.07
2022-08-30T10:31:11.134Z,69.03
2022-08-30T10:33:42.544Z,68.72
2022-08-30T10:36:15.967Z,68.62
2022-08-30T10:38:50.088Z,68.48
2022-08-30T10:41:26.126Z,68.17
2022-08-30T10:43:59.905Z,68.12
2022-08-30T10:46:37.270Z,68.21
2022-08-30T10:49:10.097Z,67.41
2022-08-30T10:51:43.359Z,67.64
2022-08-30T10:54:18.685Z,67.77
2022-08-30T10:56:51.619Z,67.34
2022-08-30T10:59:20.650Z,67.12
2022-08-30T11:02:22.046Z,66.77
2022-08-30T11:05:17.994Z,66.59
2022-08-30T11:07:58.175Z,66.20
2022-08-30T11:10:38.849Z,65.92
2022-08-30T11:13:12.024Z,65.67
2022-08-30T11:16:00.830Z,65.31
2022-08-30T11:18:33.494Z,65.32
2022-08-30T11:21:36.271Z,65.22
2022-08-30T11:24:11.486Z,65.17
2022-08-30T11:27:01.415Z,65.04
2022-08-30T11:29:33.310Z,64.77
2022-08-30T11:32:23.341Z,64.73
2022-08-30T11:35:00.690Z,64.82
2022-08-30T11:37:35.995Z,64.34
2022-08-30T11:40:07.592Z,64.52
2022-08-30T11:42:45.784Z,64.27
2022-08-30T11:45:44.585Z,63.92
2022-08-30T11:48:55.251Z,63.93
2022-08-30T11:52:26.934Z,63.79
2022-08-30T11:55:03.711Z,63.56
2022-08-30T11:57:46.504Z,63.51
2022-08-30T12:00:31.354Z,63.26
2022-08-30T12:03:05.443Z,63.31
2022-08-30T12:05:58.956Z,63.18
2022-08-30T12:09:02.957Z,63.09
2022-08-30T12:11:59.648Z,62.98
2022-08-30T12:14:41.331Z,62.88
2022-08-30T12:17:36.113Z,62.82
2022-08-30T12:20:12.768Z,62.68
2022-08-30T12:22:40.684Z,62.60
2022-08-30T12:25:18.579Z,62.47
2022-08-30T12:27:48.475Z,62.55
2022-08-30T12:30:26.757Z,62.50
2022-08-30T12:32:55.710Z,62.42
2022-08-30T12:35:29.207Z,62.16
2022-08-30T12:38:01.477Z,62.38
2022-08-30T12:40:31.463Z,62.37
2022-08-30T12:43:04.862Z,62.20
2022-08-30T12:45:40.078Z,62.16
2022-08-30T12:48:11.142Z,62.22
2022-08-30T12:50:48.931Z,62.06
2022-08-30T12:53:25.561Z,62.08
2022-08-30T12:55:56.276Z,62.12
2022-08-30T12:58:43.721Z,62.06
2022-08-30T13:01:26.361Z,61.85
2022-08-30T13:03:59.737Z,62.01
2022-08-30T13:06:40.070Z,61.83
2022-08-30T13:09:09.450Z,61.87
2022-08-30T13:11:37.767Z,61.97
2022-08-30T13:14:33.044Z,61.89
2022-08-30T13:17:12.686Z,61.74
2022-08-30T13:19:43.389Z,61.78
2022-08-30T13:22:27.596Z,61.68
2022-08-30T13:24:56.382Z,61.70
2022-08-30T13:27:25.816Z,61.71
2022-08-30T13:29:55.582Z,61.74
2022-08-30T13:32:24.578Z,61.58
2022-08-30T13:34:52.668Z,61.75
2022-08-30T13:40:15.129Z,61.64
2022-08-30T13:42:46.653Z,61.59
2022-08-30T13:48:07.645Z,61.59
2022-08-30T13:50:35.597Z,61.53
2022-08-30T13:53:03.538Z,61.31
2022-08-30T13:55:31.585Z,61.23
2022-08-30T13:57:59.498Z,61.56
2022-08-30T14:00:33.580Z,61.41
2022-08-30T14:03:05.039Z,61.25
2022-08-30T14:06:04.935Z,61.29
2022-08-30T14:11:18.609Z,61.13
2022-08-30T14:16:40.374Z,61.04
2022-08-30T14:19:10.376Z,61.13
2022-08-30T14:21:38.916Z,61.52
2022-08-30T14:24:07.444Z,61.53
2022-08-30T14:26:37.825Z,61.31
2022-08-30T14:29:09.650Z,61.34
2022-08-30T14:31:40.013Z,61.13
2022-08-30T14:34:09.477Z,61.05
2022-08-30T14:36:41.322Z,61.23
2022-08-30T14:39:12.615Z,61.26
2022-08-30T14:41:44.385Z,61.02
2022-08-30T14:44:13.552Z,61.00
2022-08-30T14:46:43.431Z,60.83
2022-08-30T14:49:12.364Z,60.43
2022-08-30T14:51:41.954Z,60.32
2022-08-30T14:54:15.863Z,60.21
2022-08-30T14:56:44.962Z,60.18
2022-08-30T14:59:13.363Z,60.09
2022-08-30T15:01:43.914Z,60.04
2022-08-30T15:04:13.147Z,59.70
2022-08-30T15:06:43.098Z,59.66
2022-08-30T15:09:14.840Z,59.63
2022-08-30T15:11:44.649Z,59.34
2022-08-30T15:14:16.235Z,58.98
2022-08-30T15:16:46.253Z,59.22
2022-08-30T15:19:16.502Z,59.44
2022-08-30T15:21:46.605Z,59.18
2022-08-30T15:24:25.000Z,59.39
2022-08-30T15:27:03.892Z,59.42
2022-08-30T15:29:32.234Z,59.23
2022-08-30T15:32:03.670Z,59.19
2022-08-30T15:34:34.057Z,58.92
2022-08-30T15:37:07.779Z,58.51
2022-08-30T15:39:37.045Z,58.35
2022-08-30T15:42:06.168Z,58.32
2022-08-30T15:44:35.091Z,58.23
2022-08-30T15:47:08.038Z,57.89
2022-08-30T15:49:36.091Z,57.80
2022-08-30T15:52:09.350Z,57.62
2022-08-30T15:54:37.690Z,57.60
2022-08-30T15:57:06.068Z,57.49
2022-08-30T15:59:34.180Z,57.37
2022-08-30T16:02:02.319Z,57.49
2022-08-30T16:04:32.765Z,57.27
2022-08-30T16:07:00.976Z,57.16
2022-08-30T16:09:29.955Z,57.10
2022-08-30T16:12:00.981Z,56.98
2022-08-30T16:14:31.712Z,56.98
2022-08-30T16:17:04.139Z,56.87
2022-08-30T16:19:34.953Z,56.83
2022-08-30T16:22:03.608Z,56.74
2022-08-30T16:24:31.839Z,56.81
2022-08-30T16:27:00.133Z,56.63
2022-08-30T16:29:28.047Z,56.73
2022-08-30T16:31:57.693Z,56.54
2022-08-30T16:34:30.403Z,56.46
2022-08-30T16:37:03.053Z,56.45
2022-08-30T16:39:31.046Z,56.24
2022-08-30T16:42:03.098Z,56.49
2022-08-30T16:44:36.118Z,56.19
2022-08-30T16:47:12.760Z,56.13
2022-08-30T16:49:48.723Z,56.21
2022-08-30T16:52:19.957Z,56.13
2022-08-30T16:54:52.013Z,56.05
2022-08-30T16:57:20.786Z,56.35
2022-08-30T16:59:49.554Z,56.10
2022-08-30T17:02:20.578Z,56.12
2022-08-30T17:04:53.057Z,56.02
2022-08-30T17:07:22.973Z,56.24
2022-08-30T17:09:51.281Z,56.09
2022-08-30T17:12:19.399Z,56.02
2022-08-30T17:14:47.739Z,56.03
2022-08-30T17:17:16.648Z,55.99
2022-08-30T17:19:52.136Z,56.01
2022-08-30T17:22:21.432Z,55.91
2022-08-30T17:24:52.355Z,56.03
2022-08-30T17:27:21.170Z,55.71
2022-08-30T17:29:49.296Z,55.97
2022-08-30T17:32:17.197Z,56.17
2022-08-30T17:34:45.891Z,55.77
2022-08-30T17:37:14.636Z,55.62
2022-08-30T17:39:42.741Z,56.05
2022-08-30T17:42:12.219Z,55.98
2022-08-30T17:44:42.206Z,56.00
2022-08-30T17:47:13.197Z,55.76
2022-08-30T17:49:41.351Z,55.86
2022-08-30T17:52:11.477Z,55.84
2022-08-30T17:54:40.115Z,56.11
2022-08-30T17:57:10.956Z,56.13
2022-08-30T17:59:41.305Z,55.77
2022-08-30T18:05:00.172Z,55.70
2022-08-30T18:07:28.760Z,55.79
2022-08-30T18:09:56.669Z,55.86
2022-08-30T18:12:24.952Z,56.15
2022-08-30T18:14:56.382Z,56.02
2022-08-30T18:17:24.503Z,56.14
2022-08-30T18:19:53.310Z,55.83
2022-08-30T18:22:21.688Z,56.18
2022-08-30T18:24:49.714Z,56.11
2022-08-30T18:27:19.431Z,56.15
2022-08-30T18:29:47.596Z,56.25
2022-08-30T18:32:17.068Z,56.24
2022-08-30T18:34:46.003Z,56.49
2022-08-30T18:37:14.698Z,56.41
2022-08-30T18:39:45.143Z,56.08
2022-08-30T18:42:15.651Z,56.11
2022-08-30T18:44:43.901Z,56.41
2022-08-30T18:47:12.244Z,56.30
2022-08-30T18:49:41.693Z,56.21
2022-08-30T18:52:11.230Z,56.23
2022-08-30T18:54:41.203Z,56.52
2022-08-30T18:57:10.083Z,56.39
2022-08-30T18:59:38.494Z,56.61
2022-08-30T19:02:07.155Z,56.27
2022-08-30T19:04:37.638Z,56.56
2022-08-30T19:07:09.042Z,56.71
2022-08-30T19:09:37.780Z,56.42
2022-08-30T19:12:09.849Z,56.47
2022-08-30T19:14:40.334Z,56.39
2022-08-30T19:17:09.156Z,56.78
2022-08-30T19:19:46.469Z,56.50
2022-08-30T19:22:19.805Z,56.57
2022-08-30T19:24:49.737Z,56.67
2022-08-30T19:27:19.123Z,56.96
2022-08-30T19:29:53.649Z,56.97
2022-08-30T19:32:22.046Z,56.90
2022-08-30T19:34:50.651Z,56.96
2022-08-30T19:37:21.960Z,57.04
2022-08-30T19:39:49.960Z,57.21
2022-08-30T19:42:19.765Z,56.94
2022-08-30T19:44:53.655Z,56.96
2022-08-30T19:47:22.684Z,56.97
2022-08-30T19:49:50.863Z,56.87
2022-08-30T19:52:21.181Z,56.94
2022-08-30T19:54:49.071Z,57.26
2022-08-30T19:57:17.215Z,57.26
2022-08-30T19:59:45.493Z,57.31
2022-08-30T20:02:13.640Z,57.51
2022-08-30T20:04:42.584Z,57.43
2022-08-30T20:07:10.945Z,57.43
2022-08-30T20:09:40.550Z,57.50
2022-08-30T20:12:09.117Z,57.35
2022-08-30T20:14:37.100Z,57.46
2022-08-30T20:17:05.296Z,57.60
2022-08-30T20:19:40.028Z,57.64
2022-08-30T20:22:08.547Z,57.77
2022-08-30T20:24:26.895Z,55.76
2022-08-30T20:24:41.338Z,57.63
2022-08-30T20:27:13.387Z,57.77
2022-08-30T20:29:42.029Z,57.81
2022-08-30T20:32:09.999Z,57.81
2022-08-30T20:34:39.646Z,57.80
2022-08-30T20:37:10.100Z,57.67
2022-08-30T20:39:39.171Z,58.16
2022-08-30T20:42:07.812Z,58.14
2022-08-30T20:44:38.939Z,58.09
2022-08-30T20:47:07.325Z,58.20
2022-08-30T20:49:35.960Z,58.31
2022-08-30T20:52:04.768Z,58.11
2022-08-30T20:54:33.135Z,58.36
2022-08-30T20:57:01.029Z,58.55
2022-08-30T20:59:28.994Z,58.10
2022-08-30T21:02:00.160Z,58.45
2022-08-30T21:04:29.019Z,58.37
2022-08-30T21:06:56.895Z,58.48
2022-08-30T21:09:24.824Z,58.68
2022-08-30T21:11:54.039Z,58.63
2022-08-30T21:14:22.484Z,58.73
2022-08-30T21:16:51.079Z,58.78
2022-08-30T21:19:20.538Z,58.56
2022-08-30T21:21:48.559Z,58.89
2022-08-30T21:24:16.603Z,59.17
2022-08-30T21:26:44.686Z,59.22
2022-08-30T21:29:15.114Z,59.38
2022-08-30T21:31:43.304Z,59.26
2022-08-30T21:34:23.206Z,59.47
2022-08-30T21:36:51.814Z,59.10
2022-08-30T21:39:22.321Z,59.59
2022-08-30T21:41:53.027Z,59.58
2022-08-30T21:44:24.016Z,59.57
2022-08-30T21:46:53.496Z,59.31
2022-08-30T21:49:24.210Z,59.80
2022-08-30T21:51:55.299Z,60.00
2022-08-30T21:54:24.599Z,59.78
2022-08-30T21:57:01.312Z,59.73
2022-08-30T21:59:29.710Z,60.05
2022-08-30T22:01:59.096Z,60.05
2022-08-30T22:04:27.420Z,60.15
2022-08-30T22:06:56.907Z,60.19
2022-08-30T22:09:26.300Z,60.22
2022-08-30T22:11:54.969Z,60.39
2022-08-30T22:14:23.315Z,60.48
2022-08-30T22:16:51.643Z,60.21
2022-08-30T22:19:23.353Z,60.43
2022-08-30T22:21:52.099Z,60.62
2022-08-30T22:24:27.225Z,60.54
2022-08-30T22:26:59.978Z,60.58
2022-08-30T22:29:29.850Z,60.69
2022-08-30T22:31:57.755Z,60.65
2022-08-30T22:34:25.965Z,61.04
2022-08-30T22:36:54.123Z,60.76
2022-08-30T22:39:22.027Z,61.16
2022-08-30T22:41:51.495Z,60.85
2022-08-30T22:44:20.018Z,61.26
2022-08-30T22:46:47.883Z,61.08
2022-08-30T22:49:16.260Z,61.31
2022-08-30T22:51:44.421Z,61.29
2022-08-30T22:54:12.353Z,61.62
2022-08-30T22:56:41.815Z,61.54
2022-08-30T22:59:11.576Z,61.33
2022-08-30T23:01:42.767Z,61.55
2022-08-30T23:04:12.031Z,61.60
2022-08-30T23:06:40.317Z,61.48
2022-08-30T23:09:11.333Z,61.70
2022-08-30T23:11:40.128Z,61.68
2022-08-30T23:14:08.546Z,61.72
2022-08-30T23:16:38.038Z,62.08
2022-08-30T23:19:06.829Z,62.33
2022-08-30T23:21:34.860Z,62.26
2022-08-30T23:24:20.142Z,62.10
2022-08-30T23:27:05.982Z,62.17
2022-08-30T23:29:53.511Z,62.21
2022-08-30T23:32:40.981Z,62.20
2022-08-30T23:35:30.249Z,62.66
2022-08-30T23:38:16.472Z,62.38
2022-08-30T23:41:01.854Z,62.77
2022-08-30T23:43:47.623Z,62.36
2022-08-30T23:46:38.785Z,62.95
2022-08-30T23:49:25.338Z,62.85
2022-08-30T23:52:10.748Z,62.84
2022-08-30T23:54:57.384Z,62.76
2022-08-30T23:57:43.904Z,62.82
